Terminal Aerodrome Forecast
Issued by NWS Des Moines, IA

Home | Current Version | Previous Version | Text Only | Print | Product List | Glossary On
Versions: 1 2 3 4 5 6 7 8 9 10 11 12 13 14 15 16 17 18 19 20 21 22 23 24 25 26 27 28
000
FTUS43 KDMX 172335
TAFALO
TAF
KALO 172335Z 1800/1824 12005KT 1SM -DZ OVC004
     FM180200 04004KT 1/2SM -DZ FG OVC002
     FM180600 36009KT P6SM OVC003
     FM180800 36014G21KT P6SM OVC006
     FM180900 36016G24KT P6SM -RA OVC007
     FM181500 33018G25KT P6SM BKN030
     FM181700 33020G26KT P6SM SCT050=

USA.gov is the U.S. government's official web portal to all federal, state and local government web resources and services.